Terminal Aerodrome Forecast
Issued by NWS Bismarck, ND

Home | Current Version | Previous Version | Graphics & Text | Print | Product List | Glossary On
Versions: 1 2 3 4 5 6 7 8 9 10 11 12 13 14 15 16 17 18 19 20 21 22
639
FTUS43 KBIS 201520 AAB
TAFBIS
TAF AMD
KBIS 201520Z 2015/2112 26004KT P6SM -RA BKN005 BKN015
     FM201600 33009KT P6SM OVC015
     FM210100 01007KT P6SM SCT035
     FM210800 08004KT P6SM FEW250=

USA.gov is the U.S. government's official web portal to all federal, state and local government web resources and services.